sensor_id;sensor_type;location;lat;lon;timestamp;temperature;humidity
65995;HTU21D;52764;51.036;5.852;2023-07-13T00:00:33;20.55;52.27
65995;HTU21D;52764;51.036;5.852;2023-07-13T00:02:59;20.50;52.55
65995;HTU21D;52764;51.036;5.852;2023-07-13T00:05:24;20.47;52.65
65995;HTU21D;52764;51.036;5.852;2023-07-13T00:07:51;20.46;52.77
65995;HTU21D;52764;51.036;5.852;2023-07-13T00:10:17;20.44;52.86
65995;HTU21D;52764;51.036;5.852;2023-07-13T00:12:44;20.41;53.01
65995;HTU21D;52764;51.036;5.852;2023-07-13T00:15:18;20.39;53.07
65995;HTU21D;52764;51.036;5.852;2023-07-13T00:17:49;20.35;53.22
65995;HTU21D;52764;51.036;5.852;2023-07-13T00:20:16;20.33;53.39
65995;HTU21D;52764;51.036;5.852;2023-07-13T00:22:42;20.27;53.59
65995;HTU21D;52764;51.036;5.852;2023-07-13T00:25:11;20.25;53.78
65995;HTU21D;52764;51.036;5.852;2023-07-13T00:27:37;20.24;53.90
65995;HTU21D;52764;51.036;5.852;2023-07-13T00:30:04;20.22;54.01
65995;HTU21D;52764;51.036;5.852;2023-07-13T00:32:31;20.21;54.10
65995;HTU21D;52764;51.036;5.852;2023-07-13T00:34:57;20.21;54.17
65995;HTU21D;52764;51.036;5.852;2023-07-13T00:37:24;20.19;54.26
65995;HTU21D;52764;51.036;5.852;2023-07-13T00:39:50;20.15;54.46
65995;HTU21D;52764;51.036;5.852;2023-07-13T00:42:15;20.15;54.53
65995;HTU21D;52764;51.036;5.852;2023-07-13T00:44:59;20.15;54.62
65995;HTU21D;52764;51.036;5.852;2023-07-13T00:47:26;20.10;54.82
65995;HTU21D;52764;51.036;5.852;2023-07-13T00:49:52;20.05;55.11
65995;HTU21D;52764;51.036;5.852;2023-07-13T00:52:17;19.97;55.40
65995;HTU21D;52764;51.036;5.852;2023-07-13T00:54:45;19.94;55.64
65995;HTU21D;52764;51.036;5.852;2023-07-13T00:57:16;19.92;55.78
65995;HTU21D;52764;51.036;5.852;2023-07-13T00:59:47;19.91;55.88
65995;HTU21D;52764;51.036;5.852;2023-07-13T01:02:15;19.89;55.98
65995;HTU21D;52764;51.036;5.852;2023-07-13T01:04:41;19.87;56.04
65995;HTU21D;52764;51.036;5.852;2023-07-13T01:07:12;19.81;56.24
65995;HTU21D;52764;51.036;5.852;2023-07-13T01:09:38;19.77;56.36
65995;HTU21D;52764;51.036;5.852;2023-07-13T01:12:04;19.80;56.28
65995;HTU21D;52764;51.036;5.852;2023-07-13T01:14:30;19.76;56.39
65995;HTU21D;52764;51.036;5.852;2023-07-13T01:16:56;19.75;56.47
65995;HTU21D;52764;51.036;5.852;2023-07-13T01:21:55;19.73;56.58
65995;HTU21D;52764;51.036;5.852;2023-07-13T01:24:21;19.67;56.73
65995;HTU21D;52764;51.036;5.852;2023-07-13T01:26:48;19.65;56.86
65995;HTU21D;52764;51.036;5.852;2023-07-13T01:29:14;19.63;56.95
65995;HTU21D;52764;51.036;5.852;2023-07-13T01:31:40;19.62;57.03
65995;HTU21D;52764;51.036;5.852;2023-07-13T01:34:05;19.58;57.16
65995;HTU21D;52764;51.036;5.852;2023-07-13T01:36:31;19.58;57.20
65995;HTU21D;52764;51.036;5.852;2023-07-13T01:38:58;19.55;57.34
65995;HTU21D;52764;51.036;5.852;2023-07-13T01:41:23;19.52;57.54
65995;HTU21D;52764;51.036;5.852;2023-07-13T01:43:49;19.50;57.71
65995;HTU21D;52764;51.036;5.852;2023-07-13T01:46:15;19.46;57.83
65995;HTU21D;52764;51.036;5.852;2023-07-13T01:48:40;19.43;58.00
65995;HTU21D;52764;51.036;5.852;2023-07-13T01:51:06;19.40;58.22
65995;HTU21D;52764;51.036;5.852;2023-07-13T01:53:32;19.36;58.35
65995;HTU21D;52764;51.036;5.852;2023-07-13T01:55:57;19.33;58.54
65995;HTU21D;52764;51.036;5.852;2023-07-13T01:58:23;19.28;58.74
65995;HTU21D;52764;51.036;5.852;2023-07-13T02:00:51;19.29;58.74
65995;HTU21D;52764;51.036;5.852;2023-07-13T02:03:17;19.27;58.91
65995;HTU21D;52764;51.036;5.852;2023-07-13T02:05:44;19.25;58.99
65995;HTU21D;52764;51.036;5.852;2023-07-13T02:08:10;19.17;59.32
65995;HTU21D;52764;51.036;5.852;2023-07-13T02:10:37;19.12;59.62
65995;HTU21D;52764;51.036;5.852;2023-07-13T02:13:05;19.07;59.80
65995;HTU21D;52764;51.036;5.852;2023-07-13T02:15:32;19.06;59.93
65995;HTU21D;52764;51.036;5.852;2023-07-13T02:17:58;19.07;59.93
65995;HTU21D;52764;51.036;5.852;2023-07-13T02:20:24;19.10;59.77
65995;HTU21D;52764;51.036;5.852;2023-07-13T02:22:50;19.09;59.79
65995;HTU21D;52764;51.036;5.852;2023-07-13T02:25:16;19.10;59.77
65995;HTU21D;52764;51.036;5.852;2023-07-13T02:27:41;19.02;59.98
65995;HTU21D;52764;51.036;5.852;2023-07-13T02:30:10;19.00;60.18
65995;HTU21D;52764;51.036;5.852;2023-07-13T02:32:37;19.00;60.20
65995;HTU21D;52764;51.036;5.852;2023-07-13T02:35:03;18.99;60.21
65995;HTU21D;52764;51.036;5.852;2023-07-13T02:37:29;19.00;60.23
65995;HTU21D;52764;51.036;5.852;2023-07-13T02:39:55;19.00;60.25
65995;HTU21D;52764;51.036;5.852;2023-07-13T02:42:22;18.98;60.36
65995;HTU21D;52764;51.036;5.852;2023-07-13T02:44:48;18.95;60.55
65995;HTU21D;52764;51.036;5.852;2023-07-13T02:47:15;18.94;60.58
65995;HTU21D;52764;51.036;5.852;2023-07-13T02:49:40;18.91;60.70
65995;HTU21D;52764;51.036;5.852;2023-07-13T02:52:06;18.88;60.91
65995;HTU21D;52764;51.036;5.852;2023-07-13T02:54:32;18.86;61.06
65995;HTU21D;52764;51.036;5.852;2023-07-13T02:56:59;18.82;61.18
65995;HTU21D;52764;51.036;5.852;2023-07-13T02:59:24;18.78;61.29
65995;HTU21D;52764;51.036;5.852;2023-07-13T03:01:51;18.73;61.49
65995;HTU21D;52764;51.036;5.852;2023-07-13T03:04:17;18.71;61.66
65995;HTU21D;52764;51.036;5.852;2023-07-13T03:06:45;18.71;61.82
65995;HTU21D;52764;51.036;5.852;2023-07-13T03:09:11;18.69;61.97
65995;HTU21D;52764;51.036;5.852;2023-07-13T03:11:41;18.68;62.07
65995;HTU21D;52764;51.036;5.852;2023-07-13T03:14:21;18.62;62.23
65995;HTU21D;52764;51.036;5.852;2023-07-13T03:16:47;18.61;62.46
65995;HTU21D;52764;51.036;5.852;2023-07-13T03:19:13;18.68;62.26
65995;HTU21D;52764;51.036;5.852;2023-07-13T03:21:42;18.62;62.52
65995;HTU21D;52764;51.036;5.852;2023-07-13T03:24:08;18.63;62.62
65995;HTU21D;52764;51.036;5.852;2023-07-13T03:26:34;18.66;62.58
65995;HTU21D;52764;51.036;5.852;2023-07-13T03:28:59;18.66;62.57
65995;HTU21D;52764;51.036;5.852;2023-07-13T03:31:29;18.66;62.63
65995;HTU21D;52764;51.036;5.852;2023-07-13T03:33:56;18.66;62.68
65995;HTU21D;52764;51.036;5.852;2023-07-13T03:36:29;18.68;62.72
65995;HTU21D;52764;51.036;5.852;2023-07-13T03:38:59;18.69;62.70
65995;HTU21D;52764;51.036;5.852;2023-07-13T03:41:45;18.67;62.81
65995;HTU21D;52764;51.036;5.852;2023-07-13T03:44:12;18.65;62.98
65995;HTU21D;52764;51.036;5.852;2023-07-13T03:46:38;18.65;62.99
65995;HTU21D;52764;51.036;5.852;2023-07-13T03:49:05;18.64;63.11
65995;HTU21D;52764;51.036;5.852;2023-07-13T03:51:32;18.63;63.22
65995;HTU21D;52764;51.036;5.852;2023-07-13T03:53:59;18.63;63.38
65995;HTU21D;52764;51.036;5.852;2023-07-13T03:56:25;18.62;63.60
65995;HTU21D;52764;51.036;5.852;2023-07-13T03:58:51;18.71;63.58
65995;HTU21D;52764;51.036;5.852;2023-07-13T04:01:20;18.80;63.56
65995;HTU21D;52764;51.036;5.852;2023-07-13T04:03:47;18.96;63.14
65995;HTU21D;52764;51.036;5.852;2023-07-13T04:06:22;19.09;62.66
65995;HTU21D;52764;51.036;5.852;2023-07-13T04:08:55;19.20;62.14
65995;HTU21D;52764;51.036;5.852;2023-07-13T04:11:24;19.72;61.99
65995;HTU21D;52764;51.036;5.852;2023-07-13T04:13:50;19.42;61.97
65995;HTU21D;52764;51.036;5.852;2023-07-13T04:16:18;19.68;61.60
65995;HTU21D;52764;51.036;5.852;2023-07-13T04:18:45;19.99;60.87
65995;HTU21D;52764;51.036;5.852;2023-07-13T04:21:12;20.31;59.86
65995;HTU21D;52764;51.036;5.852;2023-07-13T04:23:39;20.54;58.80
65995;HTU21D;52764;51.036;5.852;2023-07-13T04:26:05;20.72;57.71
65995;HTU21D;52764;51.036;5.852;2023-07-13T04:28:32;20.76;57.30
65995;HTU21D;52764;51.036;5.852;2023-07-13T04:30:57;20.84;57.03
65995;HTU21D;52764;51.036;5.852;2023-07-13T04:33:23;20.87;56.94
65995;HTU21D;52764;51.036;5.852;2023-07-13T04:35:54;20.89;56.90
65995;HTU21D;52764;51.036;5.852;2023-07-13T04:38:23;20.85;57.08
65995;HTU21D;52764;51.036;5.852;2023-07-13T04:40:51;20.87;58.18
65995;HTU21D;52764;51.036;5.852;2023-07-13T04:43:17;21.21;58.28
65995;HTU21D;52764;51.036;5.852;2023-07-13T04:45:43;21.81;56.88
65995;HTU21D;52764;51.036;5.852;2023-07-13T04:48:09;22.60;54.71
65995;HTU21D;52764;51.036;5.852;2023-07-13T04:50:38;23.38;52.46
65995;HTU21D;52764;51.036;5.852;2023-07-13T04:53:04;24.01;50.59
65995;HTU21D;52764;51.036;5.852;2023-07-13T04:55:31;24.71;49.03
65995;HTU21D;52764;51.036;5.852;2023-07-13T04:57:57;25.32;47.47
65995;HTU21D;52764;51.036;5.852;2023-07-13T05:00:25;25.75;45.96
65995;HTU21D;52764;51.036;5.852;2023-07-13T05:02:54;10.87;44.80
65995;HTU21D;52764;51.036;5.852;2023-07-13T05:05:20;25.71;44.82
65995;HTU21D;52764;51.036;5.852;2023-07-13T05:07:46;25.59;45.58
65995;HTU21D;52764;51.036;5.852;2023-07-13T05:10:12;25.54;45.75
65995;HTU21D;52764;51.036;5.852;2023-07-13T05:12:37;25.52;46.00
65995;HTU21D;52764;51.036;5.852;2023-07-13T05:15:04;25.80;45.51
65995;HTU21D;52764;51.036;5.852;2023-07-13T05:17:29;26.07;45.03
65995;HTU21D;52764;51.036;5.852;2023-07-13T05:19:55;26.33;44.19
65995;HTU21D;52764;51.036;5.852;2023-07-13T05:22:21;26.40;43.69
65995;HTU21D;52764;51.036;5.852;2023-07-13T05:24:46;26.31;43.51
65995;HTU21D;52764;51.036;5.852;2023-07-13T05:27:12;25.99;43.74
65995;HTU21D;52764;51.036;5.852;2023-07-13T05:29:38;25.65;44.52
65995;HTU21D;52764;51.036;5.852;2023-07-13T05:32:04;25.30;45.32
65995;HTU21D;52764;51.036;5.852;2023-07-13T05:34:30;24.92;45.99
65995;HTU21D;52764;51.036;5.852;2023-07-13T05:36:55;24.49;46.99
65995;HTU21D;52764;51.036;5.852;2023-07-13T05:39:22;24.08;47.91
65995;HTU21D;52764;51.036;5.852;2023-07-13T05:41:48;23.77;48.92
65995;HTU21D;52764;51.036;5.852;2023-07-13T05:44:13;23.41;43.11
65995;HTU21D;52764;51.036;5.852;2023-07-13T05:46:39;23.11;51.09
65995;HTU21D;52764;51.036;5.852;2023-07-13T05:49:05;22.93;51.67
65995;HTU21D;52764;51.036;5.852;2023-07-13T05:51:31;22.81;52.03
65995;HTU21D;52764;51.036;5.852;2023-07-13T05:53:56;22.67;52.47
65995;HTU21D;52764;51.036;5.852;2023-07-13T05:56:22;22.56;53.04
65995;HTU21D;52764;51.036;5.852;2023-07-13T05:58:48;22.53;53.36
65995;HTU21D;52764;51.036;5.852;2023-07-13T06:01:15;22.54;53.67
65995;HTU21D;52764;51.036;5.852;2023-07-13T06:03:41;22.55;53.69
65995;HTU21D;52764;51.036;5.852;2023-07-13T06:06:09;22.57;53.80
65995;HTU21D;52764;51.036;5.852;2023-07-13T06:08:35;22.64;53.82
65995;HTU21D;52764;51.036;5.852;2023-07-13T06:11:04;22.75;53.74
65995;HTU21D;52764;51.036;5.852;2023-07-13T06:13:30;22.85;53.73
65995;HTU21D;52764;51.036;5.852;2023-07-13T06:15:56;22.84;53.59
65995;HTU21D;52764;51.036;5.852;2023-07-13T06:18:22;22.87;53.64
65995;HTU21D;52764;51.036;5.852;2023-07-13T06:20:47;22.86;53.68
65995;HTU21D;52764;51.036;5.852;2023-07-13T06:23:13;22.92;53.78
65995;HTU21D;52764;51.036;5.852;2023-07-13T06:25:40;22.91;53.72
65995;HTU21D;52764;51.036;5.852;2023-07-13T06:28:05;22.88;53.84
65995;HTU21D;52764;51.036;5.852;2023-07-13T06:30:31;22.91;54.08
65995;HTU21D;52764;51.036;5.852;2023-07-13T06:32:57;22.93;53.91
65995;HTU21D;52764;51.036;5.852;2023-07-13T06:35:23;22.93;53.93
65995;HTU21D;52764;51.036;5.852;2023-07-13T06:37:48;22.92;53.91
65995;HTU21D;52764;51.036;5.852;2023-07-13T06:40:14;22.82;53.96
65995;HTU21D;52764;51.036;5.852;2023-07-13T06:42:40;22.77;54.17
65995;HTU21D;52764;51.036;5.852;2023-07-13T06:45:06;22.76;54.41
65995;HTU21D;52764;51.036;5.852;2023-07-13T06:47:32;22.73;54.39
65995;HTU21D;52764;51.036;5.852;2023-07-13T06:49:59;22.66;54.91
65995;HTU21D;52764;51.036;5.852;2023-07-13T06:52:24;22.69;55.06
65995;HTU21D;52764;51.036;5.852;2023-07-13T06:54:50;22.82;55.04
65995;HTU21D;52764;51.036;5.852;2023-07-13T06:57:16;22.83;54.99
65995;HTU21D;52764;51.036;5.852;2023-07-13T06:59:41;22.85;54.93
65995;HTU21D;52764;51.036;5.852;2023-07-13T07:02:10;22.90;55.07
65995;HTU21D;52764;51.036;5.852;2023-07-13T07:04:35;22.95;54.93
65995;HTU21D;52764;51.036;5.852;2023-07-13T07:07:02;23.00;54.81
65995;HTU21D;52764;51.036;5.852;2023-07-13T07:09:27;21.47;54.73
65995;HTU21D;52764;51.036;5.852;2023-07-13T07:11:55;22.99;54.73
65995;HTU21D;52764;51.036;5.852;2023-07-13T07:14:21;23.01;54.65
65995;HTU21D;52764;51.036;5.852;2023-07-13T07:16:47;22.99;54.84
65995;HTU21D;52764;51.036;5.852;2023-07-13T07:19:13;22.98;54.92
65995;HTU21D;52764;51.036;5.852;2023-07-13T07:21:38;23.09;54.54
65995;HTU21D;52764;51.036;5.852;2023-07-13T07:24:05;23.14;54.51
65995;HTU21D;52764;51.036;5.852;2023-07-13T07:26:31;23.20;54.40
65995;HTU21D;52764;51.036;5.852;2023-07-13T07:28:57;23.22;54.65
65995;HTU21D;52764;51.036;5.852;2023-07-13T07:31:22;23.23;54.66
65995;HTU21D;52764;51.036;5.852;2023-07-13T07:33:48;23.21;54.62
65995;HTU21D;52764;51.036;5.852;2023-07-13T07:36:16;23.17;54.69
65995;HTU21D;52764;51.036;5.852;2023-07-13T07:38:43;23.20;54.77
65995;HTU21D;52764;51.036;5.852;2023-07-13T07:41:09;23.18;54.89
65995;HTU21D;52764;51.036;5.852;2023-07-13T07:43:35;23.23;54.96
65995;HTU21D;52764;51.036;5.852;2023-07-13T07:46:01;23.30;54.71
65995;HTU21D;52764;51.036;5.852;2023-07-13T07:48:27;23.34;54.71
65995;HTU21D;52764;51.036;5.852;2023-07-13T07:50:53;23.36;54.76
65995;HTU21D;52764;51.036;5.852;2023-07-13T07:53:18;23.38;54.68
65995;HTU21D;52764;51.036;5.852;2023-07-13T07:55:44;23.42;54.66
65995;HTU21D;52764;51.036;5.852;2023-07-13T07:58:10;23.50;54.55
65995;HTU21D;52764;51.036;5.852;2023-07-13T08:00:36;23.54;54.30
65995;HTU21D;52764;51.036;5.852;2023-07-13T08:03:02;23.55;54.26
65995;HTU21D;52764;51.036;5.852;2023-07-13T08:05:29;23.51;54.41
65995;HTU21D;52764;51.036;5.852;2023-07-13T08:07:54;23.49;54.42
65995;HTU21D;52764;51.036;5.852;2023-07-13T08:10:20;23.56;54.49
65995;HTU21D;52764;51.036;5.852;2023-07-13T08:12:46;23.75;54.08
65995;HTU21D;52764;51.036;5.852;2023-07-13T08:15:15;23.98;53.62
65995;HTU21D;52764;51.036;5.852;2023-07-13T08:17:41;24.21;52.99
65995;HTU21D;52764;51.036;5.852;2023-07-13T08:20:08;24.42;52.26
65995;HTU21D;52764;51.036;5.852;2023-07-13T08:22:34;24.61;51.41
65995;HTU21D;52764;51.036;5.852;2023-07-13T08:25:00;24.69;49.76
65995;HTU21D;52764;51.036;5.852;2023-07-13T08:27:28;24.79;50.94
65995;HTU21D;52764;51.036;5.852;2023-07-13T08:29:54;24.93;50.70
65995;HTU21D;52764;51.036;5.852;2023-07-13T08:32:22;25.17;50.43
65995;HTU21D;52764;51.036;5.852;2023-07-13T08:34:50;25.45;49.48
65995;HTU21D;52764;51.036;5.852;2023-07-13T08:37:16;25.44;49.02
65995;HTU21D;52764;51.036;5.852;2023-07-13T08:39:42;25.78;48.53
65995;HTU21D;52764;51.036;5.852;2023-07-13T08:42:36;25.95;48.15
65995;HTU21D;52764;51.036;5.852;2023-07-13T08:47:53;26.70;46.20
65995;HTU21D;52764;51.036;5.852;2023-07-13T08:50:25;27.00;45.87
65995;HTU21D;52764;51.036;5.852;2023-07-13T08:52:56;27.40;44.73
65995;HTU21D;52764;51.036;5.852;2023-07-13T08:55:31;27.72;43.68
65995;HTU21D;52764;51.036;5.852;2023-07-13T08:58:14;27.85;42.80
65995;HTU21D;52764;51.036;5.852;2023-07-13T09:00:52;27.88;43.05
65995;HTU21D;52764;51.036;5.852;2023-07-13T09:03:29;27.80;42.44
65995;HTU21D;52764;51.036;5.852;2023-07-13T09:06:00;28.41;41.74
65995;HTU21D;52764;51.036;5.852;2023-07-13T09:11:42;28.33;41.48
65995;HTU21D;52764;51.036;5.852;2023-07-13T09:14:43;28.34;41.74
65995;HTU21D;52764;51.036;5.852;2023-07-13T09:17:17;28.23;41.75
65995;HTU21D;52764;51.036;5.852;2023-07-13T09:19:47;28.31;41.84
65995;HTU21D;52764;51.036;5.852;2023-07-13T09:22:19;28.47;41.45
65995;HTU21D;52764;51.036;5.852;2023-07-13T09:24:54;28.59;41.23
65995;HTU21D;52764;51.036;5.852;2023-07-13T09:27:26;28.63;25.32
65995;HTU21D;52764;51.036;5.852;2023-07-13T09:30:11;28.60;40.98
65995;HTU21D;52764;51.036;5.852;2023-07-13T09:32:50;28.52;40.90
65995;HTU21D;52764;51.036;5.852;2023-07-13T09:35:20;28.50;41.69
65995;HTU21D;52764;51.036;5.852;2023-07-13T09:37:47;28.42;41.46
65995;HTU21D;52764;51.036;5.852;2023-07-13T09:40:25;28.35;41.38
65995;HTU21D;52764;51.036;5.852;2023-07-13T09:42:54;28.17;41.83
65995;HTU21D;52764;51.036;5.852;2023-07-13T09:45:31;28.03;41.84
65995;HTU21D;52764;51.036;5.852;2023-07-13T09:48:06;27.90;42.42
65995;HTU21D;52764;51.036;5.852;2023-07-13T09:50:33;27.98;44.33
65995;HTU21D;52764;51.036;5.852;2023-07-13T09:53:01;28.17;42.51
65995;HTU21D;52764;51.036;5.852;2023-07-13T09:55:33;28.27;42.12
65995;HTU21D;52764;51.036;5.852;2023-07-13T10:00:31;28.41;41.20
65995;HTU21D;52764;51.036;5.852;2023-07-13T10:03:22;28.31;40.79
65995;HTU21D;52764;51.036;5.852;2023-07-13T10:05:50;28.14;40.93
65995;HTU21D;52764;51.036;5.852;2023-07-13T10:08:28;28.01;41.23
65995;HTU21D;52764;51.036;5.852;2023-07-13T10:11:00;27.89;41.39
65995;HTU21D;52764;51.036;5.852;2023-07-13T10:13:36;27.75;41.74
65995;HTU21D;52764;51.036;5.852;2023-07-13T10:16:04;27.63;41.94
65995;HTU21D;52764;51.036;5.852;2023-07-13T10:18:55;27.45;42.28
65995;HTU21D;52764;51.036;5.852;2023-07-13T10:21:26;27.39;42.45
65995;HTU21D;52764;51.036;5.852;2023-07-13T10:23:59;27.51;42.41
65995;HTU21D;52764;51.036;5.852;2023-07-13T10:26:33;27.56;42.16
65995;HTU21D;52764;51.036;5.852;2023-07-13T10:29:09;27.47;42.29
65995;HTU21D;52764;51.036;5.852;2023-07-13T10:31:39;27.41;42.45
65995;HTU21D;52764;51.036;5.852;2023-07-13T10:34:09;27.30;43.18
65995;HTU21D;52764;51.036;5.852;2023-07-13T10:36:46;27.32;42.96
65995;HTU21D;52764;51.036;5.852;2023-07-13T10:39:20;27.29;43.25
65995;HTU21D;52764;51.036;5.852;2023-07-13T10:41:59;27.32;43.22
65995;HTU21D;52764;51.036;5.852;2023-07-13T10:44:29;27.36;43.42
65995;HTU21D;52764;51.036;5.852;2023-07-13T10:47:01;27.37;48.62
65995;HTU21D;52764;51.036;5.852;2023-07-13T10:49:31;27.39;43.49
65995;HTU21D;52764;51.036;5.852;2023-07-13T10:51:57;27.34;43.29
65995;HTU21D;52764;51.036;5.852;2023-07-13T10:57:21;27.17;43.04
65995;HTU21D;52764;51.036;5.852;2023-07-13T11:00:17;27.06;42.85
65995;HTU21D;52764;51.036;5.852;2023-07-13T11:02:56;27.01;42.84
65995;HTU21D;52764;51.036;5.852;2023-07-13T11:05:30;27.01;42.83
65995;HTU21D;52764;51.036;5.852;2023-07-13T11:08:51;27.11;42.47
65995;HTU21D;52764;51.036;5.852;2023-07-13T11:10:52;27.26;27.41
65995;HTU21D;52764;51.036;5.852;2023-07-13T11:13:37;27.40;42.34
65995;HTU21D;52764;51.036;5.852;2023-07-13T11:21:28;27.69;41.23
65995;HTU21D;52764;51.036;5.852;2023-07-13T11:31:40;27.82;40.10
65995;HTU21D;52764;51.036;5.852;2023-07-13T11:34:15;27.95;40.20
65995;HTU21D;52764;51.036;5.852;2023-07-13T11:36:45;28.09;39.45
65995;HTU21D;52764;51.036;5.852;2023-07-13T11:39:24;28.26;39.53
65995;HTU21D;52764;51.036;5.852;2023-07-13T11:41:57;28.24;38.57
65995;HTU21D;52764;51.036;5.852;2023-07-13T11:44:26;28.18;38.47
65995;HTU21D;52764;51.036;5.852;2023-07-13T11:46:55;28.16;38.03
65995;HTU21D;52764;51.036;5.852;2023-07-13T11:49:26;28.19;38.11
65995;HTU21D;52764;51.036;5.852;2023-07-13T11:51:53;28.25;38.64
65995;HTU21D;52764;51.036;5.852;2023-07-13T11:54:33;28.34;38.91
65995;HTU21D;52764;51.036;5.852;2023-07-13T11:57:18;28.38;38.46
65995;HTU21D;52764;51.036;5.852;2023-07-13T11:59:51;28.26;37.99
65995;HTU21D;52764;51.036;5.852;2023-07-13T12:02:33;28.15;37.91
65995;HTU21D;52764;51.036;5.852;2023-07-13T12:05:02;28.12;35.18
65995;HTU21D;52764;51.036;5.852;2023-07-13T12:07:32;28.15;37.74
65995;HTU21D;52764;51.036;5.852;2023-07-13T12:10:03;28.17;38.11
65995;HTU21D;52764;51.036;5.852;2023-07-13T12:12:37;28.20;38.14
65995;HTU21D;52764;51.036;5.852;2023-07-13T12:15:07;28.12;38.03
65995;HTU21D;52764;51.036;5.852;2023-07-13T12:17:35;28.16;38.03
65995;HTU21D;52764;51.036;5.852;2023-07-13T12:20:03;28.21;38.02
65995;HTU21D;52764;51.036;5.852;2023-07-13T12:22:36;28.35;37.34
65995;HTU21D;52764;51.036;5.852;2023-07-13T12:25:02;28.50;37.45
65995;HTU21D;52764;51.036;5.852;2023-07-13T12:27:28;28.59;37.67
65995;HTU21D;52764;51.036;5.852;2023-07-13T12:33:06;28.86;34.29
65995;HTU21D;52764;51.036;5.852;2023-07-13T12:35:49;29.03;37.27
65995;HTU21D;52764;51.036;5.852;2023-07-13T12:38:17;29.12;36.50
65995;HTU21D;52764;51.036;5.852;2023-07-13T12:40:44;29.20;36.11
65995;HTU21D;52764;51.036;5.852;2023-07-13T12:43:14;29.08;35.29
65995;HTU21D;52764;51.036;5.852;2023-07-13T12:45:55;29.03;35.33
65995;HTU21D;52764;51.036;5.852;2023-07-13T12:48:21;29.12;35.71
65995;HTU21D;52764;51.036;5.852;2023-07-13T12:50:49;29.20;35.60
65995;HTU21D;52764;51.036;5.852;2023-07-13T12:53:20;29.28;35.44
65995;HTU21D;52764;51.036;5.852;2023-07-13T12:55:49;29.26;35.33
65995;HTU21D;52764;51.036;5.852;2023-07-13T12:58:22;29.20;35.26
65995;HTU21D;52764;51.036;5.852;2023-07-13T13:00:54;29.19;35.23
65995;HTU21D;52764;51.036;5.852;2023-07-13T13:03:30;29.29;34.94
65995;HTU21D;52764;51.036;5.852;2023-07-13T13:06:06;29.39;34.31
65995;HTU21D;52764;51.036;5.852;2023-07-13T13:08:34;29.41;34.15
65995;HTU21D;52764;51.036;5.852;2023-07-13T13:11:03;29.39;34.48
65995;HTU21D;52764;51.036;5.852;2023-07-13T13:13:28;29.32;35.08
65995;HTU21D;52764;51.036;5.852;2023-07-13T13:15:54;29.38;35.21
65995;HTU21D;52764;51.036;5.852;2023-07-13T13:18:22;29.48;35.02
65995;HTU21D;52764;51.036;5.852;2023-07-13T13:20:50;29.50;33.93
65995;HTU21D;52764;51.036;5.852;2023-07-13T13:23:20;29.37;34.25
65995;HTU21D;52764;51.036;5.852;2023-07-13T13:25:49;29.34;33.92
65995;HTU21D;52764;51.036;5.852;2023-07-13T13:28:18;29.27;33.79
65995;HTU21D;52764;51.036;5.852;2023-07-13T13:30:46;29.13;33.79
65995;HTU21D;52764;51.036;5.852;2023-07-13T13:33:15;28.93;33.93
65995;HTU21D;52764;51.036;5.852;2023-07-13T13:35:42;28.84;34.25
65995;HTU21D;52764;51.036;5.852;2023-07-13T13:38:16;28.84;34.12
65995;HTU21D;52764;51.036;5.852;2023-07-13T13:40:44;28.73;34.19
65995;HTU21D;52764;51.036;5.852;2023-07-13T13:43:25;28.65;34.29
65995;HTU21D;52764;51.036;5.852;2023-07-13T13:45:55;28.50;34.43
65995;HTU21D;52764;51.036;5.852;2023-07-13T13:48:31;28.39;35.02
65995;HTU21D;52764;51.036;5.852;2023-07-13T13:50:58;28.31;35.10
65995;HTU21D;52764;51.036;5.852;2023-07-13T13:53:24;28.16;35.02
65995;HTU21D;52764;51.036;5.852;2023-07-13T13:55:50;29.49;35.12
65995;HTU21D;52764;51.036;5.852;2023-07-13T13:58:18;28.08;35.41
65995;HTU21D;52764;51.036;5.852;2023-07-13T14:00:44;28.01;35.48
65995;HTU21D;52764;51.036;5.852;2023-07-13T14:03:29;28.00;35.31
65995;HTU21D;52764;51.036;5.852;2023-07-13T14:05:56;27.80;36.63
65995;HTU21D;52764;51.036;5.852;2023-07-13T14:08:22;27.55;37.97
65995;HTU21D;52764;51.036;5.852;2023-07-13T14:10:52;27.29;38.90
65995;HTU21D;52764;51.036;5.852;2023-07-13T14:13:29;26.95;39.96
65995;HTU21D;52764;51.036;5.852;2023-07-13T14:15:56;26.75;40.65
65995;HTU21D;52764;51.036;5.852;2023-07-13T14:18:22;26.57;41.13
65995;HTU21D;52764;51.036;5.852;2023-07-13T14:20:49;26.45;41.50
65995;HTU21D;52764;51.036;5.852;2023-07-13T14:23:17;26.43;41.94
65995;HTU21D;52764;51.036;5.852;2023-07-13T14:25:45;26.35;42.07
65995;HTU21D;52764;51.036;5.852;2023-07-13T14:28:26;26.25;42.19
65995;HTU21D;52764;51.036;5.852;2023-07-13T14:30:53;26.22;42.48
65995;HTU21D;52764;51.036;5.852;2023-07-13T14:33:23;26.22;42.47
65995;HTU21D;52764;51.036;5.852;2023-07-13T14:35:49;26.17;42.66
65995;HTU21D;52764;51.036;5.852;2023-07-13T14:38:18;26.16;42.90
65995;HTU21D;52764;51.036;5.852;2023-07-13T14:40:46;26.19;42.74
65995;HTU21D;52764;51.036;5.852;2023-07-13T14:43:13;26.08;43.10
65995;HTU21D;52764;51.036;5.852;2023-07-13T14:45:43;25.97;43.08
65995;HTU21D;52764;51.036;5.852;2023-07-13T14:48:15;25.96;43.17
65995;HTU21D;52764;51.036;5.852;2023-07-13T14:50:42;25.96;43.09
65995;HTU21D;52764;51.036;5.852;2023-07-13T14:53:12;25.93;43.15
65995;HTU21D;52764;51.036;5.852;2023-07-13T14:55:38;25.93;43.03
65995;HTU21D;52764;51.036;5.852;2023-07-13T14:58:04;25.94;43.06
65995;HTU21D;52764;51.036;5.852;2023-07-13T15:00:30;25.94;43.16
65995;HTU21D;52764;51.036;5.852;2023-07-13T15:03:02;25.98;43.01
65995;HTU21D;52764;51.036;5.852;2023-07-13T15:05:31;26.02;43.02
65995;HTU21D;52764;51.036;5.852;2023-07-13T15:07:59;26.02;42.94
65995;HTU21D;52764;51.036;5.852;2023-07-13T15:10:32;26.03;42.75
65995;HTU21D;52764;51.036;5.852;2023-07-13T15:15:45;26.09;41.93
65995;HTU21D;52764;51.036;5.852;2023-07-13T15:18:13;26.02;42.00
65995;HTU21D;52764;51.036;5.852;2023-07-13T15:20:40;26.02;41.71
65995;HTU21D;52764;51.036;5.852;2023-07-13T15:23:06;26.09;41.78
65995;HTU21D;52764;51.036;5.852;2023-07-13T15:25:33;26.16;41.78
65995;HTU21D;52764;51.036;5.852;2023-07-13T15:28:00;26.26;41.25
65995;HTU21D;52764;51.036;5.852;2023-07-13T15:30:30;24.88;40.93
65995;HTU21D;52764;51.036;5.852;2023-07-13T15:33:15;26.41;40.71
65995;HTU21D;52764;51.036;5.852;2023-07-13T15:35:43;26.50;40.07
65995;HTU21D;52764;51.036;5.852;2023-07-13T15:38:21;26.53;39.94
65995;HTU21D;52764;51.036;5.852;2023-07-13T15:40:49;26.61;39.95
65995;HTU21D;52764;51.036;5.852;2023-07-13T15:43:17;26.68;39.85
65995;HTU21D;52764;51.036;5.852;2023-07-13T15:45:45;26.70;39.83
65995;HTU21D;52764;51.036;5.852;2023-07-13T15:48:18;26.70;39.94
65995;HTU21D;52764;51.036;5.852;2023-07-13T15:50:52;26.75;40.28
65995;HTU21D;52764;51.036;5.852;2023-07-13T15:53:23;26.75;40.17
65995;HTU21D;52764;51.036;5.852;2023-07-13T15:55:49;26.80;40.05
65995;HTU21D;52764;51.036;5.852;2023-07-13T15:58:15;26.82;39.97